sensor_id;sensor_type;location;lat;lon;timestamp;P1;durP1;ratioP1;P2;durP2;ratioP2
17141;SDS011;32805;53.556;9.944;2022-09-12T00:00:27;6.40;;;5.80;;
17141;SDS011;32805;53.556;9.944;2022-09-12T00:02:57;6.65;;;5.82;;
17141;SDS011;32805;53.556;9.944;2022-09-12T00:05:25;8.27;;;5.80;;
17141;SDS011;32805;53.556;9.944;2022-09-12T00:07:53;6.80;;;6.10;;
17141;SDS011;32805;53.556;9.944;2022-09-12T00:10:22;8.13;;;6.68;;
17141;SDS011;32805;53.556;9.944;2022-09-12T00:12:50;7.05;;;6.00;;
17141;SDS011;32805;53.556;9.944;2022-09-12T00:15:18;7.82;;;5.97;;
17141;SDS011;32805;53.556;9.944;2022-09-12T00:17:46;6.18;;;5.57;;
17141;SDS011;32805;53.556;9.944;2022-09-12T00:20:13;6.65;;;5.78;;
17141;SDS011;32805;53.556;9.944;2022-09-12T00:22:41;6.25;;;5.20;;
17141;SDS011;32805;53.556;9.944;2022-09-12T00:25:09;8.43;;;6.05;;
17141;SDS011;32805;53.556;9.944;2022-09-12T00:27:38;6.93;;;6.03;;
17141;SDS011;32805;53.556;9.944;2022-09-12T00:30:07;6.68;;;5.97;;
17141;SDS011;32805;53.556;9.944;2022-09-12T00:32:35;7.90;;;5.90;;
17141;SDS011;32805;53.556;9.944;2022-09-12T00:35:02;6.25;;;5.65;;
17141;SDS011;32805;53.556;9.944;2022-09-12T00:37:30;9.93;;;6.97;;
17141;SDS011;32805;53.556;9.944;2022-09-12T00:39:58;8.13;;;6.57;;
17141;SDS011;32805;53.556;9.944;2022-09-12T00:42:25;8.38;;;6.88;;
17141;SDS011;32805;53.556;9.944;2022-09-12T00:44:54;7.13;;;6.43;;
17141;SDS011;32805;53.556;9.944;2022-09-12T00:47:23;7.53;;;6.75;;
17141;SDS011;32805;53.556;9.944;2022-09-12T00:49:54;8.57;;;6.30;;
17141;SDS011;32805;53.556;9.944;2022-09-12T00:52:27;8.15;;;6.68;;
17141;SDS011;32805;53.556;9.944;2022-09-12T00:54:59;7.45;;;6.55;;
17141;SDS011;32805;53.556;9.944;2022-09-12T00:57:31;19.67;;;6.53;;
17141;SDS011;32805;53.556;9.944;2022-09-12T01:00:05;9.73;;;6.63;;
17141;SDS011;32805;53.556;9.944;2022-09-12T01:02:38;7.82;;;6.60;;
17141;SDS011;32805;53.556;9.944;2022-09-12T01:05:07;8.60;;;6.53;;
17141;SDS011;32805;53.556;9.944;2022-09-12T01:07:36;7.30;;;6.60;;
17141;SDS011;32805;53.556;9.944;2022-09-12T01:10:06;7.72;;;6.93;;
17141;SDS011;32805;53.556;9.944;2022-09-12T01:12:36;7.85;;;6.38;;
17141;SDS011;32805;53.556;9.944;2022-09-12T01:15:08;9.68;;;6.82;;
17141;SDS011;32805;53.556;9.944;2022-09-12T01:17:39;6.60;;;6.00;;
17141;SDS011;32805;53.556;9.944;2022-09-12T01:26:40;8.82;;;7.18;;
17141;SDS011;32805;53.556;9.944;2022-09-12T01:29:23;7.68;;;6.88;;
17141;SDS011;32805;53.556;9.944;2022-09-12T01:32:03;7.53;;;6.82;;
17141;SDS011;32805;53.556;9.944;2022-09-12T01:34:37;7.50;;;6.70;;
17141;SDS011;32805;53.556;9.944;2022-09-12T01:37:13;7.72;;;6.38;;
17141;SDS011;32805;53.556;9.944;2022-09-12T01:39:47;8.18;;;6.45;;
17141;SDS011;32805;53.556;9.944;2022-09-12T01:42:21;8.25;;;6.50;;
17141;SDS011;32805;53.556;9.944;2022-09-12T01:44:55;7.05;;;6.35;;
17141;SDS011;32805;53.556;9.944;2022-09-12T01:47:32;8.55;;;6.82;;
17141;SDS011;32805;53.556;9.944;2022-09-12T01:50:07;7.90;;;6.25;;
17141;SDS011;32805;53.556;9.944;2022-09-12T01:52:37;8.38;;;6.40;;
17141;SDS011;32805;53.556;9.944;2022-09-12T01:55:10;7.30;;;6.60;;
17141;SDS011;32805;53.556;9.944;2022-09-12T01:57:43;7.82;;;6.60;;
17141;SDS011;32805;53.556;9.944;2022-09-12T02:00:16;7.78;;;6.25;;
17141;SDS011;32805;53.556;9.944;2022-09-12T02:02:48;7.38;;;6.25;;
17141;SDS011;32805;53.556;9.944;2022-09-12T02:05:19;8.05;;;6.50;;
17141;SDS011;32805;53.556;9.944;2022-09-12T02:07:52;7.78;;;5.85;;
17141;SDS011;32805;53.556;9.944;2022-09-12T02:10:23;6.75;;;5.82;;
17141;SDS011;32805;53.556;9.944;2022-09-12T02:13:02;7.75;;;6.50;;
17141;SDS011;32805;53.556;9.944;2022-09-12T02:15:35;7.38;;;6.15;;
17141;SDS011;32805;53.556;9.944;2022-09-12T02:18:07;6.85;;;6.15;;
17141;SDS011;32805;53.556;9.944;2022-09-12T02:20:40;9.25;;;7.07;;
17141;SDS011;32805;53.556;9.944;2022-09-12T02:23:16;6.88;;;5.88;;
17141;SDS011;32805;53.556;9.944;2022-09-12T02:25:47;7.32;;;6.60;;
17141;SDS011;32805;53.556;9.944;2022-09-12T02:28:20;7.80;;;7.00;;
17141;SDS011;32805;53.556;9.944;2022-09-12T02:30:53;8.18;;;6.90;;
17141;SDS011;32805;53.556;9.944;2022-09-12T02:33:28;7.68;;;6.95;;
17141;SDS011;32805;53.556;9.944;2022-09-12T02:36:07;7.07;;;6.40;;
17141;SDS011;32805;53.556;9.944;2022-09-12T02:38:42;6.97;;;6.30;;
17141;SDS011;32805;53.556;9.944;2022-09-12T02:41:14;6.80;;;6.10;;
17141;SDS011;32805;53.556;9.944;2022-09-12T02:43:44;7.75;;;7.05;;
17141;SDS011;32805;53.556;9.944;2022-09-12T02:46:12;7.38;;;6.68;;
17141;SDS011;32805;53.556;9.944;2022-09-12T02:48:46;9.27;;;6.90;;
17141;SDS011;32805;53.556;9.944;2022-09-12T02:51:13;8.65;;;7.28;;
17141;SDS011;32805;53.556;9.944;2022-09-12T02:53:48;8.57;;;7.78;;
17141;SDS011;32805;53.556;9.944;2022-09-12T02:56:18;8.43;;;7.05;;
17141;SDS011;32805;53.556;9.944;2022-09-12T02:58:50;10.57;;;7.93;;
17141;SDS011;32805;53.556;9.944;2022-09-12T03:01:21;8.50;;;7.65;;
17141;SDS011;32805;53.556;9.944;2022-09-12T03:07:15;8.70;;;7.90;;
17141;SDS011;32805;53.556;9.944;2022-09-12T03:09:53;9.40;;;8.38;;
17141;SDS011;32805;53.556;9.944;2022-09-12T03:12:31;10.88;;;7.80;;
17141;SDS011;32805;53.556;9.944;2022-09-12T03:15:17;8.73;;;7.85;;
17141;SDS011;32805;53.556;9.944;2022-09-12T03:18:01;9.48;;;8.38;;
17141;SDS011;32805;53.556;9.944;2022-09-12T03:20:39;10.30;;;8.75;;
17141;SDS011;32805;53.556;9.944;2022-09-12T03:23:16;9.73;;;7.93;;
17141;SDS011;32805;53.556;9.944;2022-09-12T03:25:52;9.38;;;8.38;;
17141;SDS011;32805;53.556;9.944;2022-09-12T03:28:25;11.73;;;9.60;;
17141;SDS011;32805;53.556;9.944;2022-09-12T03:30:53;9.23;;;8.32;;
17141;SDS011;32805;53.556;9.944;2022-09-12T03:33:23;11.40;;;9.95;;
17141;SDS011;32805;53.556;9.944;2022-09-12T03:35:53;10.52;;;9.43;;
17141;SDS011;32805;53.556;9.944;2022-09-12T03:38:21;11.75;;;9.68;;
17141;SDS011;32805;53.556;9.944;2022-09-12T03:40:49;10.70;;;9.10;;
17141;SDS011;32805;53.556;9.944;2022-09-12T03:43:20;10.52;;;8.70;;
17141;SDS011;32805;53.556;9.944;2022-09-12T03:45:49;10.18;;;9.10;;
17141;SDS011;32805;53.556;9.944;2022-09-12T03:48:19;11.07;;;9.98;;
17141;SDS011;32805;53.556;9.944;2022-09-12T03:50:47;10.88;;;9.77;;
17141;SDS011;32805;53.556;9.944;2022-09-12T03:53:16;11.80;;;9.70;;
17141;SDS011;32805;53.556;9.944;2022-09-12T03:55:43;12.23;;;9.45;;
17141;SDS011;32805;53.556;9.944;2022-09-12T03:58:11;11.93;;;10.55;;
17141;SDS011;32805;53.556;9.944;2022-09-12T04:00:39;14.10;;;11.30;;
17141;SDS011;32805;53.556;9.944;2022-09-12T04:03:08;13.52;;;11.10;;
17141;SDS011;32805;53.556;9.944;2022-09-12T04:05:36;12.68;;;11.20;;
17141;SDS011;32805;53.556;9.944;2022-09-12T04:08:03;12.70;;;11.40;;
17141;SDS011;32805;53.556;9.944;2022-09-12T04:10:32;12.63;;;10.13;;
17141;SDS011;32805;53.556;9.944;2022-09-12T04:13:00;13.40;;;11.98;;
17141;SDS011;32805;53.556;9.944;2022-09-12T04:15:28;13.57;;;11.20;;
17141;SDS011;32805;53.556;9.944;2022-09-12T04:17:55;16.85;;;12.75;;
17141;SDS011;32805;53.556;9.944;2022-09-12T04:20:30;15.93;;;12.02;;
17141;SDS011;32805;53.556;9.944;2022-09-12T04:22:58;15.55;;;12.73;;
17141;SDS011;32805;53.556;9.944;2022-09-12T04:25:25;15.60;;;11.88;;
17141;SDS011;32805;53.556;9.944;2022-09-12T04:27:54;15.10;;;12.90;;
17141;SDS011;32805;53.556;9.944;2022-09-12T04:30:22;17.40;;;14.75;;
17141;SDS011;32805;53.556;9.944;2022-09-12T04:32:50;17.17;;;14.32;;
17141;SDS011;32805;53.556;9.944;2022-09-12T04:35:17;16.95;;;14.45;;
17141;SDS011;32805;53.556;9.944;2022-09-12T04:37:45;16.55;;;14.15;;
17141;SDS011;32805;53.556;9.944;2022-09-12T04:40:13;16.80;;;14.90;;
17141;SDS011;32805;53.556;9.944;2022-09-12T04:42:41;17.50;;;13.88;;
17141;SDS011;32805;53.556;9.944;2022-09-12T04:45:10;16.35;;;14.57;;
17141;SDS011;32805;53.556;9.944;2022-09-12T04:47:38;17.30;;;14.63;;
17141;SDS011;32805;53.556;9.944;2022-09-12T04:50:06;16.23;;;14.15;;
17141;SDS011;32805;53.556;9.944;2022-09-12T04:52:34;16.88;;;13.05;;
17141;SDS011;32805;53.556;9.944;2022-09-12T04:55:02;17.42;;;14.25;;
17141;SDS011;32805;53.556;9.944;2022-09-12T04:57:30;16.15;;;12.65;;
17141;SDS011;32805;53.556;9.944;2022-09-12T04:59:57;16.63;;;13.52;;
17141;SDS011;32805;53.556;9.944;2022-09-12T05:02:35;16.33;;;12.48;;
17141;SDS011;32805;53.556;9.944;2022-09-12T05:05:03;16.67;;;13.75;;
17141;SDS011;32805;53.556;9.944;2022-09-12T05:07:32;18.73;;;14.07;;
17141;SDS011;32805;53.556;9.944;2022-09-12T05:09:59;17.20;;;14.80;;
17141;SDS011;32805;53.556;9.944;2022-09-12T05:12:28;19.20;;;14.10;;
17141;SDS011;32805;53.556;9.944;2022-09-12T05:14:56;18.27;;;15.40;;
17141;SDS011;32805;53.556;9.944;2022-09-12T05:17:24;17.20;;;13.07;;
17141;SDS011;32805;53.556;9.944;2022-09-12T05:19:53;20.10;;;16.25;;
17141;SDS011;32805;53.556;9.944;2022-09-12T05:22:21;18.17;;;14.75;;
17141;SDS011;32805;53.556;9.944;2022-09-12T05:24:49;19.27;;;13.82;;
17141;SDS011;32805;53.556;9.944;2022-09-12T05:27:16;18.08;;;15.20;;
17141;SDS011;32805;53.556;9.944;2022-09-12T05:29:48;18.05;;;15.07;;
17141;SDS011;32805;53.556;9.944;2022-09-12T05:32:15;21.00;;;15.00;;
17141;SDS011;32805;53.556;9.944;2022-09-12T05:34:43;18.45;;;15.13;;
17141;SDS011;32805;53.556;9.944;2022-09-12T05:37:12;19.85;;;16.13;;
17141;SDS011;32805;53.556;9.944;2022-09-12T05:39:40;17.97;;;13.80;;
17141;SDS011;32805;53.556;9.944;2022-09-12T05:42:07;18.63;;;14.98;;
17141;SDS011;32805;53.556;9.944;2022-09-12T05:44:35;20.27;;;15.65;;
17141;SDS011;32805;53.556;9.944;2022-09-12T05:47:03;19.13;;;15.45;;
17141;SDS011;32805;53.556;9.944;2022-09-12T05:49:31;19.02;;;14.93;;
17141;SDS011;32805;53.556;9.944;2022-09-12T05:51:58;16.40;;;13.45;;
17141;SDS011;32805;53.556;9.944;2022-09-12T05:54:27;16.95;;;13.27;;
17141;SDS011;32805;53.556;9.944;2022-09-12T05:56:57;17.80;;;14.52;;
17141;SDS011;32805;53.556;9.944;2022-09-12T05:59:25;18.67;;;13.77;;
17141;SDS011;32805;53.556;9.944;2022-09-12T06:01:53;15.68;;;11.52;;
17141;SDS011;32805;53.556;9.944;2022-09-12T06:04:21;16.15;;;13.30;;
17141;SDS011;32805;53.556;9.944;2022-09-12T06:06:49;16.27;;;13.00;;
17141;SDS011;32805;53.556;9.944;2022-09-12T06:09:17;15.02;;;11.82;;
17141;SDS011;32805;53.556;9.944;2022-09-12T06:11:46;14.10;;;10.82;;
17141;SDS011;32805;53.556;9.944;2022-09-12T06:14:14;12.85;;;10.85;;
17141;SDS011;32805;53.556;9.944;2022-09-12T06:16:43;12.52;;;10.52;;
17141;SDS011;32805;53.556;9.944;2022-09-12T06:19:14;13.55;;;12.15;;
17141;SDS011;32805;53.556;9.944;2022-09-12T06:21:47;13.45;;;11.73;;
17141;SDS011;32805;53.556;9.944;2022-09-12T06:24:15;10.70;;;9.13;;
17141;SDS011;32805;53.556;9.944;2022-09-12T06:26:43;11.00;;;9.90;;
17141;SDS011;32805;53.556;9.944;2022-09-12T06:29:13;11.30;;;9.52;;
17141;SDS011;32805;53.556;9.944;2022-09-12T06:31:42;11.55;;;10.35;;
17141;SDS011;32805;53.556;9.944;2022-09-12T06:34:11;12.32;;;9.90;;
17141;SDS011;32805;53.556;9.944;2022-09-12T06:36:41;11.05;;;9.50;;
17141;SDS011;32805;53.556;9.944;2022-09-12T06:39:10;9.88;;;8.85;;
17141;SDS011;32805;53.556;9.944;2022-09-12T06:41:39;9.32;;;8.40;;
17141;SDS011;32805;53.556;9.944;2022-09-12T06:44:11;9.43;;;8.43;;
17141;SDS011;32805;53.556;9.944;2022-09-12T06:46:42;9.80;;;8.88;;
17141;SDS011;32805;53.556;9.944;2022-09-12T06:49:10;12.32;;;8.55;;
17141;SDS011;32805;53.556;9.944;2022-09-12T06:51:39;12.38;;;8.57;;
17141;SDS011;32805;53.556;9.944;2022-09-12T06:54:10;10.18;;;9.02;;
17141;SDS011;32805;53.556;9.944;2022-09-12T06:56:39;9.30;;;8.35;;
17141;SDS011;32805;53.556;9.944;2022-09-12T06:59:06;9.77;;;8.63;;
17141;SDS011;32805;53.556;9.944;2022-09-12T07:01:34;8.75;;;7.75;;
17141;SDS011;32805;53.556;9.944;2022-09-12T07:04:04;8.30;;;7.43;;
17141;SDS011;32805;53.556;9.944;2022-09-12T07:06:34;9.30;;;8.27;;
17141;SDS011;32805;53.556;9.944;2022-09-12T07:09:03;7.63;;;6.95;;
17141;SDS011;32805;53.556;9.944;2022-09-12T07:11:33;8.52;;;7.63;;
17141;SDS011;32805;53.556;9.944;2022-09-12T07:14:02;7.93;;;7.15;;
17141;SDS011;32805;53.556;9.944;2022-09-12T07:16:31;8.10;;;7.18;;
17141;SDS011;32805;53.556;9.944;2022-09-12T07:19:02;8.20;;;7.22;;
17141;SDS011;32805;53.556;9.944;2022-09-12T07:21:33;7.75;;;7.05;;
17141;SDS011;32805;53.556;9.944;2022-09-12T07:24:05;8.25;;;7.40;;
17141;SDS011;32805;53.556;9.944;2022-09-12T07:26:33;7.82;;;7.13;;
17141;SDS011;32805;53.556;9.944;2022-09-12T07:29:01;7.35;;;5.65;;
17141;SDS011;32805;53.556;9.944;2022-09-12T07:31:50;9.02;;;6.63;;
17141;SDS011;32805;53.556;9.944;2022-09-12T07:34:19;7.18;;;6.47;;
17141;SDS011;32805;53.556;9.944;2022-09-12T07:36:47;7.97;;;6.13;;
17141;SDS011;32805;53.556;9.944;2022-09-12T07:39:15;6.75;;;5.88;;
17141;SDS011;32805;53.556;9.944;2022-09-12T07:41:42;8.05;;;7.25;;
17141;SDS011;32805;53.556;9.944;2022-09-12T07:44:10;8.95;;;6.85;;
17141;SDS011;32805;53.556;9.944;2022-09-12T07:46:37;7.47;;;6.32;;
17141;SDS011;32805;53.556;9.944;2022-09-12T07:49:05;10.60;;;5.90;;
17141;SDS011;32805;53.556;9.944;2022-09-12T07:51:35;8.60;;;6.75;;
17141;SDS011;32805;53.556;9.944;2022-09-12T07:54:06;6.75;;;6.10;;
17141;SDS011;32805;53.556;9.944;2022-09-12T07:56:36;6.97;;;5.65;;
17141;SDS011;32805;53.556;9.944;2022-09-12T07:59:05;9.20;;;6.72;;
17141;SDS011;32805;53.556;9.944;2022-09-12T08:01:33;8.50;;;7.70;;
17141;SDS011;32805;53.556;9.944;2022-09-12T08:04:00;8.82;;;7.93;;
17141;SDS011;32805;53.556;9.944;2022-09-12T08:06:30;9.52;;;6.60;;
17141;SDS011;32805;53.556;9.944;2022-09-12T08:09:00;10.02;;;7.50;;
17141;SDS011;32805;53.556;9.944;2022-09-12T08:11:28;6.15;;;5.55;;
17141;SDS011;32805;53.556;9.944;2022-09-12T08:13:56;8.90;;;7.30;;
17141;SDS011;32805;53.556;9.944;2022-09-12T08:16:25;7.93;;;6.95;;
17141;SDS011;32805;53.556;9.944;2022-09-12T08:18:54;6.50;;;5.90;;
17141;SDS011;32805;53.556;9.944;2022-09-12T08:21:23;6.90;;;5.38;;
17141;SDS011;32805;53.556;9.944;2022-09-12T08:23:52;7.53;;;5.97;;
17141;SDS011;32805;53.556;9.944;2022-09-12T08:26:22;6.22;;;5.63;;
17141;SDS011;32805;53.556;9.944;2022-09-12T08:28:50;5.15;;;4.65;;
17141;SDS011;32805;53.556;9.944;2022-09-12T08:31:19;11.55;;;9.25;;
17141;SDS011;32805;53.556;9.944;2022-09-12T08:33:48;10.50;;;7.90;;
17141;SDS011;32805;53.556;9.944;2022-09-12T08:36:17;9.18;;;5.88;;
17141;SDS011;32805;53.556;9.944;2022-09-12T08:38:47;6.03;;;5.43;;
17141;SDS011;32805;53.556;9.944;2022-09-12T08:41:19;8.45;;;6.53;;
17141;SDS011;32805;53.556;9.944;2022-09-12T08:46:58;7.10;;;5.38;;
17141;SDS011;32805;53.556;9.944;2022-09-12T08:49:51;4.85;;;4.45;;
17141;SDS011;32805;53.556;9.944;2022-09-12T08:52:24;10.52;;;8.00;;
17141;SDS011;32805;53.556;9.944;2022-09-12T08:54:55;6.32;;;4.65;;
17141;SDS011;32805;53.556;9.944;2022-09-12T08:57:24;5.60;;;4.00;;
17141;SDS011;32805;53.556;9.944;2022-09-12T08:59:52;8.02;;;4.32;;
17141;SDS011;32805;53.556;9.944;2022-09-12T09:02:46;4.68;;;4.15;;
17141;SDS011;32805;53.556;9.944;2022-09-12T09:05:26;5.70;;;4.82;;
17141;SDS011;32805;53.556;9.944;2022-09-12T09:08:14;6.22;;;5.60;;
17141;SDS011;32805;53.556;9.944;2022-09-12T09:10:55;4.97;;;4.43;;
17141;SDS011;32805;53.556;9.944;2022-09-12T09:13:35;4.18;;;3.60;;
17141;SDS011;32805;53.556;9.944;2022-09-12T09:16:31;7.88;;;5.65;;
17141;SDS011;32805;53.556;9.944;2022-09-12T09:19:02;5.93;;;5.15;;
17141;SDS011;32805;53.556;9.944;2022-09-12T09:21:34;9.57;;;5.22;;
17141;SDS011;32805;53.556;9.944;2022-09-12T09:24:07;4.60;;;4.15;;
17141;SDS011;32805;53.556;9.944;2022-09-12T09:26:39;11.98;;;7.28;;
17141;SDS011;32805;53.556;9.944;2022-09-12T09:29:14;9.15;;;6.30;;
17141;SDS011;32805;53.556;9.944;2022-09-12T09:31:45;12.35;;;7.38;;
17141;SDS011;32805;53.556;9.944;2022-09-12T09:34:17;3.83;;;3.42;;
17141;SDS011;32805;53.556;9.944;2022-09-12T09:36:49;9.00;;;6.00;;
17141;SDS011;32805;53.556;9.944;2022-09-12T09:39:21;3.85;;;3.30;;
17141;SDS011;32805;53.556;9.944;2022-09-12T09:42:00;5.88;;;3.50;;
17141;SDS011;32805;53.556;9.944;2022-09-12T09:44:40;7.55;;;4.70;;
17141;SDS011;32805;53.556;9.944;2022-09-12T09:47:09;3.53;;;3.17;;
17141;SDS011;32805;53.556;9.944;2022-09-12T09:49:38;4.00;;;2.92;;
17141;SDS011;32805;53.556;9.944;2022-09-12T09:52:06;5.35;;;4.03;;
17141;SDS011;32805;53.556;9.944;2022-09-12T09:54:38;3.25;;;2.95;;
17141;SDS011;32805;53.556;9.944;2022-09-12T10:00:22;3.13;;;2.88;;
17141;SDS011;32805;53.556;9.944;2022-09-12T10:03:00;4.20;;;3.35;;
17141;SDS011;32805;53.556;9.944;2022-09-12T10:05:43;3.75;;;3.45;;
17141;SDS011;32805;53.556;9.944;2022-09-12T10:08:18;4.53;;;3.53;;
17141;SDS011;32805;53.556;9.944;2022-09-12T10:10:52;3.33;;;2.67;;
17141;SDS011;32805;53.556;9.944;2022-09-12T10:13:23;4.97;;;3.22;;
17141;SDS011;32805;53.556;9.944;2022-09-12T10:15:56;5.10;;;2.25;;
17141;SDS011;32805;53.556;9.944;2022-09-12T10:18:36;2.15;;;1.85;;
17141;SDS011;32805;53.556;9.944;2022-09-12T10:21:12;1.88;;;1.67;;
17141;SDS011;32805;53.556;9.944;2022-09-12T10:23:42;1.63;;;1.52;;
17141;SDS011;32805;53.556;9.944;2022-09-12T10:26:12;2.55;;;1.95;;
17141;SDS011;32805;53.556;9.944;2022-09-12T10:28:42;2.22;;;1.75;;
17141;SDS011;32805;53.556;9.944;2022-09-12T10:31:15;1.65;;;1.55;;
17141;SDS011;32805;53.556;9.944;2022-09-12T10:33:54;3.50;;;1.73;;
17141;SDS011;32805;53.556;9.944;2022-09-12T10:36:24;1.67;;;1.50;;
17141;SDS011;32805;53.556;9.944;2022-09-12T10:39:01;1.40;;;1.30;;
17141;SDS011;32805;53.556;9.944;2022-09-12T10:41:34;2.00;;;1.50;;
17141;SDS011;32805;53.556;9.944;2022-09-12T10:44:06;1.60;;;1.50;;
17141;SDS011;32805;53.556;9.944;2022-09-12T10:46:41;2.15;;;1.50;;
17141;SDS011;32805;53.556;9.944;2022-09-12T10:49:19;2.22;;;1.70;;
17141;SDS011;32805;53.556;9.944;2022-09-12T10:51:50;1.35;;;1.25;;
17141;SDS011;32805;53.556;9.944;2022-09-12T10:54:20;1.73;;;1.58;;
17141;SDS011;32805;53.556;9.944;2022-09-12T10:57:10;2.45;;;1.52;;
17141;SDS011;32805;53.556;9.944;2022-09-12T11:00:09;1.95;;;1.80;;
17141;SDS011;32805;53.556;9.944;2022-09-12T11:02:55;1.67;;;1.10;;
17141;SDS011;32805;53.556;9.944;2022-09-12T11:05:35;4.30;;;1.50;;
17141;SDS011;32805;53.556;9.944;2022-09-12T11:08:10;1.52;;;1.20;;
17141;SDS011;32805;53.556;9.944;2022-09-12T11:10:47;1.50;;;1.40;;
17141;SDS011;32805;53.556;9.944;2022-09-12T11:13:25;1.50;;;1.38;;
17141;SDS011;32805;53.556;9.944;2022-09-12T11:16:04;1.40;;;1.30;;
17141;SDS011;32805;53.556;9.944;2022-09-12T11:18:46;1.42;;;1.30;;
17141;SDS011;32805;53.556;9.944;2022-09-12T11:21:38;1.48;;;1.30;;
17141;SDS011;32805;53.556;9.944;2022-09-12T11:24:23;1.67;;;1.40;;
17141;SDS011;32805;53.556;9.944;2022-09-12T11:27:22;1.52;;;1.35;;
17141;SDS011;32805;53.556;9.944;2022-09-12T11:30:01;1.55;;;1.45;;
17141;SDS011;32805;53.556;9.944;2022-09-12T11:32:45;2.55;;;1.60;;
17141;SDS011;32805;53.556;9.944;2022-09-12T11:35:38;1.35;;;1.25;;
17141;SDS011;32805;53.556;9.944;2022-09-12T11:38:25;1.77;;;1.58;;
17141;SDS011;32805;53.556;9.944;2022-09-12T11:41:08;1.70;;;1.60;;
17141;SDS011;32805;53.556;9.944;2022-09-12T11:43:42;1.80;;;1.40;;
17141;SDS011;32805;53.556;9.944;2022-09-12T11:46:16;1.65;;;1.55;;
17141;SDS011;32805;53.556;9.944;2022-09-12T11:48:50;1.95;;;1.60;;
17141;SDS011;32805;53.556;9.944;2022-09-12T11:51:26;1.50;;;1.40;;
17141;SDS011;32805;53.556;9.944;2022-09-12T11:54:01;1.77;;;1.50;;
17141;SDS011;32805;53.556;9.944;2022-09-12T11:56:35;1.70;;;1.60;;
17141;SDS011;32805;53.556;9.944;2022-09-12T11:59:08;1.67;;;1.58;;
17141;SDS011;32805;53.556;9.944;2022-09-12T12:01:44;2.08;;;1.88;;
17141;SDS011;32805;53.556;9.944;2022-09-12T12:04:19;1.88;;;1.75;;
17141;SDS011;32805;53.556;9.944;2022-09-12T12:06:53;1.38;;;1.27;;
17141;SDS011;32805;53.556;9.944;2022-09-12T12:09:25;1.45;;;1.35;;
17141;SDS011;32805;53.556;9.944;2022-09-12T12:11:54;1.50;;;1.40;;
17141;SDS011;32805;53.556;9.944;2022-09-12T12:14:25;1.98;;;1.80;;
17141;SDS011;32805;53.556;9.944;2022-09-12T12:16:58;1.50;;;1.40;;
17141;SDS011;32805;53.556;9.944;2022-09-12T12:19:30;1.73;;;1.63;;
17141;SDS011;32805;53.556;9.944;2022-09-12T12:22:11;1.50;;;1.40;;
17141;SDS011;32805;53.556;9.944;2022-09-12T12:25:02;2.58;;;1.70;;
17141;SDS011;32805;53.556;9.944;2022-09-12T12:27:48;1.98;;;1.77;;
17141;SDS011;32805;53.556;9.944;2022-09-12T12:36:37;2.40;;;1.70;;
17141;SDS011;32805;53.556;9.944;2022-09-12T12:54:29;1.77;;;1.58;;
17141;SDS011;32805;53.556;9.944;2022-09-12T12:57:16;2.08;;;1.75;;
17141;SDS011;32805;53.556;9.944;2022-09-12T12:59:57;1.90;;;1.80;;
17141;SDS011;32805;53.556;9.944;2022-09-12T13:02:30;1.95;;;1.80;;
17141;SDS011;32805;53.556;9.944;2022-09-12T13:05:00;1.73;;;1.63;;
17141;SDS011;32805;53.556;9.944;2022-09-12T13:07:33;2.22;;;1.88;;
17141;SDS011;32805;53.556;9.944;2022-09-12T13:10:04;1.60;;;1.48;;
17141;SDS011;32805;53.556;9.944;2022-09-12T13:12:33;2.25;;;1.60;;
17141;SDS011;32805;53.556;9.944;2022-09-12T13:15:27;1.88;;;1.65;;
17141;SDS011;32805;53.556;9.944;2022-09-12T13:18:13;3.35;;;1.52;;
17141;SDS011;32805;53.556;9.944;2022-09-12T13:20:46;1.50;;;1.40;;
17141;SDS011;32805;53.556;9.944;2022-09-12T13:23:20;1.83;;;1.42;;
17141;SDS011;32805;53.556;9.944;2022-09-12T13:25:53;1.40;;;1.30;;
17141;SDS011;32805;53.556;9.944;2022-09-12T13:28:22;2.45;;;1.60;;
17141;SDS011;32805;53.556;9.944;2022-09-12T13:30:56;2.88;;;1.60;;
17141;SDS011;32805;53.556;9.944;2022-09-12T13:33:34;1.73;;;1.63;;
17141;SDS011;32805;53.556;9.944;2022-09-12T13:36:21;4.22;;;1.65;;
17141;SDS011;32805;53.556;9.944;2022-09-12T13:39:13;2.13;;;1.75;;
17141;SDS011;32805;53.556;9.944;2022-09-12T13:41:47;1.48;;;1.38;;
17141;SDS011;32805;53.556;9.944;2022-09-12T13:44:37;3.55;;;1.80;;
17141;SDS011;32805;53.556;9.944;2022-09-12T13:47:10;3.00;;;1.75;;
17141;SDS011;32805;53.556;9.944;2022-09-12T13:49:41;1.98;;;1.88;;
17141;SDS011;32805;53.556;9.944;2022-09-12T13:52:13;2.40;;;1.90;;
17141;SDS011;32805;53.556;9.944;2022-09-12T13:54:44;2.55;;;2.35;;
17141;SDS011;32805;53.556;9.944;2022-09-12T13:57:28;2.13;;;1.92;;
17141;SDS011;32805;53.556;9.944;2022-09-12T13:59:58;1.92;;;1.83;;
17141;SDS011;32805;53.556;9.944;2022-09-12T14:02:34;2.38;;;1.80;;
17141;SDS011;32805;53.556;9.944;2022-09-12T14:05:12;2.33;;;1.75;;
17141;SDS011;32805;53.556;9.944;2022-09-12T14:07:50;2.05;;;1.80;;
17141;SDS011;32805;53.556;9.944;2022-09-12T14:10:24;3.10;;;2.03;;
17141;SDS011;32805;53.556;9.944;2022-09-12T14:12:55;2.55;;;2.35;;
17141;SDS011;32805;53.556;9.944;2022-09-12T14:15:25;2.25;;;2.05;;
17141;SDS011;32805;53.556;9.944;2022-09-12T14:17:57;3.33;;;2.35;;
17141;SDS011;32805;53.556;9.944;2022-09-12T14:20:27;2.85;;;2.60;;
17141;SDS011;32805;53.556;9.944;2022-09-12T14:22:58;2.00;;;1.80;;
17141;SDS011;32805;53.556;9.944;2022-09-12T14:25:30;2.45;;;2.15;;
17141;SDS011;32805;53.556;9.944;2022-09-12T14:28:02;4.80;;;2.50;;
17141;SDS011;32805;53.556;9.944;2022-09-12T14:30:32;3.03;;;2.13;;
17141;SDS011;32805;53.556;9.944;2022-09-12T14:33:04;2.50;;;2.30;;
17141;SDS011;32805;53.556;9.944;2022-09-12T14:35:43;3.30;;;2.47;;
17141;SDS011;32805;53.556;9.944;2022-09-12T14:38:15;2.65;;;2.45;;
17141;SDS011;32805;53.556;9.944;2022-09-12T14:40:50;2.38;;;2.17;;
17141;SDS011;32805;53.556;9.944;2022-09-12T14:43:23;2.40;;;2.20;;
17141;SDS011;32805;53.556;9.944;2022-09-12T14:45:53;5.50;;;4.35;;
17141;SDS011;32805;53.556;9.944;2022-09-12T14:48:23;3.85;;;2.65;;
17141;SDS011;32805;53.556;9.944;2022-09-12T14:50:52;3.38;;;3.08;;
17141;SDS011;32805;53.556;9.944;2022-09-12T14:53:22;5.97;;;3.97;;
17141;SDS011;32805;53.556;9.944;2022-09-12T14:55:52;4.45;;;3.10;;
17141;SDS011;32805;53.556;9.944;2022-09-12T14:58:25;4.20;;;3.55;;
17141;SDS011;32805;53.556;9.944;2022-09-12T15:00:55;3.20;;;2.90;;
17141;SDS011;32805;53.556;9.944;2022-09-12T15:03:28;5.38;;;3.45;;
17141;SDS011;32805;53.556;9.944;2022-09-12T15:05:57;3.53;;;2.67;;
17141;SDS011;32805;53.556;9.944;2022-09-12T15:08:25;2.75;;;2.55;;
17141;SDS011;32805;53.556;9.944;2022-09-12T15:10:54;2.78;;;2.50;;
17141;SDS011;32805;53.556;9.944;2022-09-12T15:13:22;4.35;;;2.60;;
17141;SDS011;32805;53.556;9.944;2022-09-12T15:15:51;3.55;;;3.08;;
17141;SDS011;32805;53.556;9.944;2022-09-12T15:18:21;3.97;;;2.88;;
17141;SDS011;32805;53.556;9.944;2022-09-12T15:20:53;3.13;;;2.83;;
17141;SDS011;32805;53.556;9.944;2022-09-12T15:23:28;3.10;;;2.80;;
17141;SDS011;32805;53.556;9.944;2022-09-12T15:25:59;3.75;;;2.78;;
17141;SDS011;32805;53.556;9.944;2022-09-12T15:28:27;3.45;;;2.83;;
17141;SDS011;32805;53.556;9.944;2022-09-12T15:30:56;5.28;;;2.90;;
17141;SDS011;32805;53.556;9.944;2022-09-12T15:33:29;4.38;;;2.78;;
17141;SDS011;32805;53.556;9.944;2022-09-12T15:35:58;2.80;;;2.30;;
17141;SDS011;32805;53.556;9.944;2022-09-12T15:38:26;2.70;;;2.50;;
17141;SDS011;32805;53.556;9.944;2022-09-12T15:40:53;3.67;;;2.53;;
17141;SDS011;32805;53.556;9.944;2022-09-12T15:43:22;2.95;;;2.72;;
17141;SDS011;32805;53.556;9.944;2022-09-12T15:45:51;4.85;;;2.53;;
17141;SDS011;32805;53.556;9.944;2022-09-12T15:48:19;2.95;;;2.75;;
17141;SDS011;32805;53.556;9.944;2022-09-12T15:50:50;3.28;;;2.47;;